sensor_id;sensor_type;location;lat;lon;timestamp;temperature;humidity
29255;DHT22;16277;48.890;2.306;2023-04-01T00:09:23;13.80;99.90
29255;DHT22;16277;48.890;2.306;2023-04-01T00:24:32;13.40;99.90
29255;DHT22;16277;48.890;2.306;2023-04-01T00:39:36;13.50;99.90
29255;DHT22;16277;48.890;2.306;2023-04-01T00:54:43;13.30;99.90
29255;DHT22;16277;48.890;2.306;2023-04-01T01:09:53;13.50;99.90
29255;DHT22;16277;48.890;2.306;2023-04-01T01:25:16;13.30;99.90
29255;DHT22;16277;48.890;2.306;2023-04-01T01:40:24;13.10;99.90
29255;DHT22;16277;48.890;2.306;2023-04-01T01:55:32;13.30;99.90
29255;DHT22;16277;48.890;2.306;2023-04-01T02:10:39;13.20;99.90
29255;DHT22;16277;48.890;2.306;2023-04-01T02:25:47;13.00;99.90
29255;DHT22;16277;48.890;2.306;2023-04-01T02:40:58;12.90;99.90
29255;DHT22;16277;48.890;2.306;2023-04-01T02:56:03;13.00;99.90
29255;DHT22;16277;48.890;2.306;2023-04-01T03:11:09;13.20;99.90
29255;DHT22;16277;48.890;2.306;2023-04-01T03:26:13;13.10;99.90
29255;DHT22;16277;48.890;2.306;2023-04-01T03:41:18;13.00;99.90
29255;DHT22;16277;48.890;2.306;2023-04-01T03:56:23;13.10;99.90
29255;DHT22;16277;48.890;2.306;2023-04-01T04:11:30;12.90;99.90
29255;DHT22;16277;48.890;2.306;2023-04-01T04:26:36;13.20;99.90
29255;DHT22;16277;48.890;2.306;2023-04-01T04:41:41;13.00;99.90
29255;DHT22;16277;48.890;2.306;2023-04-01T04:56:45;13.10;99.90
29255;DHT22;16277;48.890;2.306;2023-04-01T05:11:50;13.20;99.90
29255;DHT22;16277;48.890;2.306;2023-04-01T05:26:56;13.30;99.90
29255;DHT22;16277;48.890;2.306;2023-04-01T05:42:02;13.20;99.90
29255;DHT22;16277;48.890;2.306;2023-04-01T05:57:07;13.10;99.90
29255;DHT22;16277;48.890;2.306;2023-04-01T06:12:29;13.10;99.90
29255;DHT22;16277;48.890;2.306;2023-04-01T06:27:58;13.00;99.90
29255;DHT22;16277;48.890;2.306;2023-04-01T06:43:13;13.20;99.90
29255;DHT22;16277;48.890;2.306;2023-04-01T06:58:52;13.10;99.90
29255;DHT22;16277;48.890;2.306;2023-04-01T07:14:01;13.10;99.90
29255;DHT22;16277;48.890;2.306;2023-04-01T07:29:09;13.10;99.90
29255;DHT22;16277;48.890;2.306;2023-04-01T07:44:31;13.30;99.90
29255;DHT22;16277;48.890;2.306;2023-04-01T07:59:45;13.50;99.90
29255;DHT22;16277;48.890;2.306;2023-04-01T08:15:08;13.50;99.90
29255;DHT22;16277;48.890;2.306;2023-04-01T08:30:41;13.50;99.90
29255;DHT22;16277;48.890;2.306;2023-04-01T08:46:13;13.60;99.90
29255;DHT22;16277;48.890;2.306;2023-04-01T09:01:32;13.60;99.90
29255;DHT22;16277;48.890;2.306;2023-04-01T09:48:35;14.20;99.90
29255;DHT22;16277;48.890;2.306;2023-04-01T10:04:22;14.10;99.90
29255;DHT22;16277;48.890;2.306;2023-04-01T10:35:48;14.70;99.90
29255;DHT22;16277;48.890;2.306;2023-04-01T10:51:16;14.80;99.90
29255;DHT22;16277;48.890;2.306;2023-04-01T11:06:37;14.80;99.90
29255;DHT22;16277;48.890;2.306;2023-04-01T11:21:59;15.10;98.70
29255;DHT22;16277;48.890;2.306;2023-04-01T11:37:28;15.70;98.40
29255;DHT22;16277;48.890;2.306;2023-04-01T11:53:11;15.60;98.40
29255;DHT22;16277;48.890;2.306;2023-04-01T12:08:25;15.80;97.80
29255;DHT22;16277;48.890;2.306;2023-04-01T12:23:53;16.10;98.70
29255;DHT22;16277;48.890;2.306;2023-04-01T12:54:59;16.60;95.20
29255;DHT22;16277;48.890;2.306;2023-04-01T13:10:15;17.10;95.10
29255;DHT22;16277;48.890;2.306;2023-04-01T13:25:27;17.20;94.80
29255;DHT22;16277;48.890;2.306;2023-04-01T13:40:42;16.60;95.60
29255;DHT22;16277;48.890;2.306;2023-04-01T13:56:15;17.50;94.90
29255;DHT22;16277;48.890;2.306;2023-04-01T14:11:25;17.40;94.90
29255;DHT22;16277;48.890;2.306;2023-04-01T14:27:07;18.10;92.90
29255;DHT22;16277;48.890;2.306;2023-04-01T14:42:35;17.90;93.80
29255;DHT22;16277;48.890;2.306;2023-04-01T14:57:52;18.20;93.40
29255;DHT22;16277;48.890;2.306;2023-04-01T15:13:09;17.00;99.00
29255;DHT22;16277;48.890;2.306;2023-04-01T15:28:22;17.10;98.80
29255;DHT22;16277;48.890;2.306;2023-04-01T15:43:36;16.50;99.90
29255;DHT22;16277;48.890;2.306;2023-04-01T15:58:50;16.80;99.90
29255;DHT22;16277;48.890;2.306;2023-04-01T16:14:06;15.40;99.90
29255;DHT22;16277;48.890;2.306;2023-04-01T16:29:20;15.10;99.90
29255;DHT22;16277;48.890;2.306;2023-04-01T16:44:27;15.20;99.90
29255;DHT22;16277;48.890;2.306;2023-04-01T16:59:37;15.10;99.90
29255;DHT22;16277;48.890;2.306;2023-04-01T17:14:46;15.10;99.90
29255;DHT22;16277;48.890;2.306;2023-04-01T17:30:12;15.30;99.90
29255;DHT22;16277;48.890;2.306;2023-04-01T17:45:23;14.30;99.90
29255;DHT22;16277;48.890;2.306;2023-04-01T18:00:33;14.80;99.90
29255;DHT22;16277;48.890;2.306;2023-04-01T18:16:02;14.80;99.90
29255;DHT22;16277;48.890;2.306;2023-04-01T18:31:14;14.30;99.90
29255;DHT22;16277;48.890;2.306;2023-04-01T18:46:24;14.10;99.90
29255;DHT22;16277;48.890;2.306;2023-04-01T19:01:36;14.50;99.90
29255;DHT22;16277;48.890;2.306;2023-04-01T19:16:49;14.30;99.90
29255;DHT22;16277;48.890;2.306;2023-04-01T19:32:03;14.10;99.90
29255;DHT22;16277;48.890;2.306;2023-04-01T19:47:17;14.10;99.90
29255;DHT22;16277;48.890;2.306;2023-04-01T20:02:54;14.40;99.90
29255;DHT22;16277;48.890;2.306;2023-04-01T20:18:02;14.20;99.90
29255;DHT22;16277;48.890;2.306;2023-04-01T20:33:23;14.10;99.90
29255;DHT22;16277;48.890;2.306;2023-04-01T20:48:48;14.40;99.90
29255;DHT22;16277;48.890;2.306;2023-04-01T21:04:07;13.90;99.90
29255;DHT22;16277;48.890;2.306;2023-04-01T21:19:24;14.40;99.90
29255;DHT22;16277;48.890;2.306;2023-04-01T21:34:42;14.10;99.90
29255;DHT22;16277;48.890;2.306;2023-04-01T21:50:19;13.90;99.90
29255;DHT22;16277;48.890;2.306;2023-04-01T22:05:31;14.00;99.90
29255;DHT22;16277;48.890;2.306;2023-04-01T22:20:44;13.80;99.90
29255;DHT22;16277;48.890;2.306;2023-04-01T22:35:55;13.90;99.90
29255;DHT22;16277;48.890;2.306;2023-04-01T22:51:07;13.80;99.90
29255;DHT22;16277;48.890;2.306;2023-04-01T23:06:19;13.10;99.90
29255;DHT22;16277;48.890;2.306;2023-04-01T23:21:29;13.30;99.90
29255;DHT22;16277;48.890;2.306;2023-04-01T23:36:39;14.20;99.90
29255;DHT22;16277;48.890;2.306;2023-04-01T23:51:52;13.30;99.90
